Time;durP1;ratioP1;P1;durP2;ratioP2;P2;SDS_P1;SDS_P2;PMS_P1;PMS_P2;Temp;Humidity;BMP_temperature;BMP_pressure;BME280_temperature;BME280_humidity;BME280_pressure;Samples;Min_cycle;Max_cycle;Signal;HPM_P1;HPM_P2
2021/06/10 00:01:00;;;;;;;13.37;12.20;;;19.70;99.90;;;;;;5054784;28;20529;-70
2021/06/10 00:03:25;;;;;;;11.97;10.67;;;19.70;99.90;;;;;;5048583;28;20260;-69
2021/06/10 00:05:51;;;;;;;11.97;10.97;;;19.70;99.90;;;;;;5057127;28;20508;-70
2021/06/10 00:08:17;;;;;;;11.30;10.30;;;19.60;99.90;;;;;;5056793;28;20215;-70
2021/06/10 00:10:44;;;;;;;11.97;10.97;;;19.60;99.90;;;;;;5054217;28;20743;-71
2021/06/10 00:13:12;;;;;;;13.23;11.93;;;19.50;99.90;;;;;;5054678;28;20205;-71
2021/06/10 00:15:38;;;;;;;13.47;12.27;;;19.50;99.90;;;;;;5060703;28;20471;-71
2021/06/10 00:18:05;;;;;;;12.20;11.10;;;19.40;99.90;;;;;;5055408;28;20456;-73
2021/06/10 00:20:35;;;;;;;11.30;10.30;;;19.40;99.90;;;;;;5058337;28;20213;-72
2021/06/10 00:23:00;;;;;;;10.93;10.03;;;19.40;99.90;;;;;;5056088;28;20418;-70
2021/06/10 00:25:28;;;;;;;11.67;10.57;;;19.30;99.90;;;;;;5058316;28;20504;-75
2021/06/10 00:27:55;;;;;;;11.63;10.63;;;19.30;99.90;;;;;;5054898;28;20287;-69
2021/06/10 00:30:21;;;;;;;11.27;10.40;;;19.20;99.90;;;;;;5058137;28;20451;-70
2021/06/10 00:32:48;;;;;;;12.70;11.70;;;19.20;99.90;;;;;;5061672;28;20455;-73
2021/06/10 00:35:15;;;;;;;12.00;11.00;;;19.30;99.90;;;;;;5056422;28;20214;-70
2021/06/10 00:37:40;;;;;;;11.97;10.87;;;19.20;99.90;;;;;;5055015;28;20755;-70
2021/06/10 00:40:08;;;;;;;11.73;10.77;;;19.20;99.90;;;;;;5059023;28;20474;-72
2021/06/10 00:42:34;;;;;;;11.77;10.77;;;19.10;99.90;;;;;;5062116;28;20242;-70
2021/06/10 00:44:59;;;;;;;11.70;10.70;;;19.10;99.90;;;;;;5060893;28;20427;-70
2021/06/10 00:47:26;;;;;;;11.87;10.93;;;19.10;99.90;;;;;;5061671;28;20442;-70
2021/06/10 00:49:52;;;;;;;12.17;11.17;;;19.00;99.90;;;;;;5064706;28;20194;-68
2021/06/10 00:52:18;;;;;;;11.50;10.60;;;19.00;99.90;;;;;;5059367;28;20440;-72
2021/06/10 00:54:44;;;;;;;12.37;11.20;;;19.00;99.90;;;;;;5062165;28;20427;-73
2021/06/10 00:57:10;;;;;;;13.50;12.30;;;18.90;99.90;;;;;;5061205;28;20444;-70
2021/06/10 00:59:35;;;;;;;12.10;11.10;;;18.90;99.90;;;;;;5060118;28;20288;-70
2021/06/10 01:02:01;;;;;;;13.33;12.20;;;18.90;99.90;;;;;;5061749;28;20927;-70
2021/06/10 01:04:27;;;;;;;12.60;11.60;;;18.80;99.90;;;;;;5059253;28;20289;-71
2021/06/10 01:07:06;;;;;;;12.53;11.63;;;18.80;99.90;;;;;;5061993;28;20189;-71
2021/06/10 01:09:56;;;;;;;13.80;12.70;;;18.80;99.90;;;;;;5054463;28;20460;-68
2021/06/10 01:12:35;;;;;;;12.40;11.40;;;18.80;99.90;;;;;;5058328;28;20829;-70
2021/06/10 01:15:07;;;;;;;12.13;11.17;;;18.70;99.90;;;;;;5065945;28;20510;-70
2021/06/10 01:17:41;;;;;;;13.70;12.50;;;18.60;99.90;;;;;;5057790;28;20444;-70
2021/06/10 01:20:09;;;;;;;12.87;11.87;;;18.60;99.90;;;;;;5054156;28;20424;-69
2021/06/10 01:22:58;;;;;;;14.63;13.33;;;18.60;99.90;;;;;;5062899;28;20441;-72
2021/06/10 01:25:42;;;;;;;12.80;11.70;;;18.60;99.90;;;;;;5059954;28;20867;-69
2021/06/10 01:28:25;;;;;;;11.93;11.03;;;18.50;99.90;;;;;;5058455;28;20443;-71
2021/06/10 01:30:56;;;;;;;13.30;12.20;;;18.40;99.90;;;;;;5060766;28;20979;-69
2021/06/10 01:33:31;;;;;;;12.80;11.70;;;18.40;99.90;;;;;;5061219;28;20436;-70
2021/06/10 01:36:14;;;;;;;12.53;11.53;;;18.30;99.90;;;;;;5061147;28;20467;-70
2021/06/10 01:38:43;;;;;;;14.63;13.23;;;18.30;99.90;;;;;;5050238;28;20918;-69
2021/06/10 01:41:09;;;;;;;13.17;12.13;;;18.20;99.90;;;;;;5052467;28;20421;-70
2021/06/10 01:43:38;;;;;;;14.53;13.33;;;18.20;99.90;;;;;;5054495;28;20424;-71
2021/06/10 01:46:04;;;;;;;13.57;12.33;;;18.20;99.90;;;;;;5060458;28;20419;-69
2021/06/10 01:48:31;;;;;;;15.83;14.20;;;18.20;99.90;;;;;;5057349;28;21048;-70
2021/06/10 01:51:00;;;;;;;13.73;12.63;;;18.10;99.90;;;;;;5055651;28;20938;-70
2021/06/10 01:53:26;;;;;;;15.27;14.00;;;18.10;99.90;;;;;;5050239;28;20432;-72
2021/06/10 01:55:56;;;;;;;15.23;13.87;;;18.10;99.90;;;;;;5057279;28;20977;-72
2021/06/10 01:58:22;;;;;;;14.30;13.07;;;18.10;99.90;;;;;;5064879;28;20549;-74
2021/06/10 02:00:50;;;;;;;14.10;12.90;;;18.00;99.90;;;;;;5052859;28;20433;-71
2021/06/10 02:03:17;;;;;;;15.57;14.27;;;18.00;99.90;;;;;;5061097;28;20417;-73
2021/06/10 02:05:43;;;;;;;14.73;13.33;;;18.00;99.90;;;;;;5064188;28;20432;-73
2021/06/10 02:08:10;;;;;;;14.83;13.53;;;18.00;99.90;;;;;;5058247;28;20929;-71
2021/06/10 02:10:37;;;;;;;15.23;13.93;;;17.90;99.90;;;;;;5056671;28;20792;-70
2021/06/10 02:13:03;;;;;;;15.73;13.57;;;17.90;99.90;;;;;;5057775;28;20512;-72
2021/06/10 02:15:30;;;;;;;13.40;12.30;;;17.90;99.90;;;;;;5065298;28;20489;-72
2021/06/10 02:17:55;;;;;;;14.37;13.27;;;17.90;99.90;;;;;;5057107;28;20940;-71
2021/06/10 02:20:22;;;;;;;13.80;12.70;;;17.80;99.90;;;;;;5061154;28;20468;-71
2021/06/10 02:22:48;;;;;;;14.90;13.70;;;17.80;99.90;;;;;;5056934;28;20562;-71
2021/06/10 02:25:14;;;;;;;14.30;13.00;;;17.80;99.90;;;;;;5060559;28;20504;-71
2021/06/10 02:27:40;;;;;;;13.87;12.77;;;17.70;99.90;;;;;;5063330;28;20584;-73
2021/06/10 02:30:08;;;;;;;14.80;13.33;;;17.70;99.90;;;;;;5057174;28;20182;-71
2021/06/10 02:32:34;;;;;;;14.93;13.60;;;17.70;99.90;;;;;;5055826;28;20456;-71
2021/06/10 02:35:08;;;;;;;12.70;11.57;;;17.70;99.90;;;;;;5061959;28;20532;-71
2021/06/10 02:37:36;;;;;;;13.50;12.50;;;17.60;99.90;;;;;;5043303;28;20899;-71
2021/06/10 02:40:07;;;;;;;13.53;12.17;;;17.60;99.90;;;;;;5057935;28;20417;-70
2021/06/10 02:42:35;;;;;;;14.57;13.47;;;17.50;99.90;;;;;;5060032;28;20450;-70
2021/06/10 02:45:01;;;;;;;14.10;12.80;;;17.50;99.90;;;;;;5058933;28;20963;-72
2021/06/10 02:47:27;;;;;;;14.63;13.33;;;17.50;99.90;;;;;;5059840;28;20478;-72
2021/06/10 02:49:53;;;;;;;14.27;12.80;;;17.40;99.90;;;;;;5060121;28;20532;-70
2021/06/10 02:52:20;;;;;;;16.00;14.60;;;17.40;99.90;;;;;;5056537;28;20178;-74
2021/06/10 02:54:48;;;;;;;16.50;15.07;;;17.40;99.90;;;;;;5053182;28;20422;-71
2021/06/10 02:57:15;;;;;;;15.50;14.20;;;17.40;99.90;;;;;;5058883;28;20551;-70
2021/06/10 02:59:42;;;;;;;14.77;13.47;;;17.40;99.90;;;;;;5058935;28;20470;-71
2021/06/10 03:02:09;;;;;;;16.30;14.90;;;17.30;99.90;;;;;;5058444;28;20416;-72
2021/06/10 03:04:35;;;;;;;15.70;14.40;;;17.30;99.90;;;;;;5058590;28;20439;-70
2021/06/10 03:07:01;;;;;;;14.80;13.63;;;17.40;99.90;;;;;;5059181;28;20419;-70
2021/06/10 03:09:28;;;;;;;14.70;13.40;;;17.30;99.90;;;;;;5056127;28;20444;-71
2021/06/10 03:11:55;;;;;;;14.93;13.63;;;17.30;99.90;;;;;;5058618;28;20668;-70
2021/06/10 03:14:22;;;;;;;15.53;14.23;;;17.30;99.90;;;;;;5057909;28;20430;-74
2021/06/10 03:16:48;;;;;;;14.33;13.23;;;17.30;99.90;;;;;;5057116;28;20459;-73
2021/06/10 03:19:16;;;;;;;14.37;13.10;;;17.20;99.90;;;;;;5046301;28;20477;-73
2021/06/10 03:21:43;;;;;;;15.87;14.47;;;17.20;99.90;;;;;;5060144;28;20419;-78
2021/06/10 03:24:09;;;;;;;15.10;13.70;;;17.20;99.90;;;;;;5057923;28;20412;-77
2021/06/10 03:26:35;;;;;;;15.70;14.30;;;17.20;99.90;;;;;;5075415;28;20491;-77
2021/06/10 03:29:02;;;;;;;14.40;13.20;;;17.10;99.90;;;;;;5059445;28;20446;-77
2021/06/10 03:31:29;;;;;;;16.60;15.03;;;17.20;99.90;;;;;;5058939;28;20491;-78
2021/06/10 03:33:55;;;;;;;16.07;14.67;;;17.20;99.90;;;;;;5059837;28;20404;-78
2021/06/10 03:36:22;;;;;;;17.03;15.53;;;17.20;99.90;;;;;;5057019;28;20836;-77
2021/06/10 03:38:49;;;;;;;17.17;15.47;;;17.20;99.90;;;;;;5054569;28;20536;-78
2021/06/10 03:41:16;;;;;;;17.90;16.30;;;17.30;99.90;;;;;;5061920;28;20427;-78
2021/06/10 03:43:42;;;;;;;17.00;15.30;;;17.30;99.90;;;;;;5062790;28;20558;-78
2021/06/10 03:46:09;;;;;;;15.63;14.20;;;17.20;99.90;;;;;;5055404;28;20892;-78
2021/06/10 03:48:39;;;;;;;16.53;15.03;;;17.20;99.90;;;;;;5062560;28;20531;-78
2021/06/10 03:51:16;;;;;;;17.60;16.00;;;17.20;99.90;;;;;;5054296;28;20425;-79
2021/06/10 03:53:46;;;;;;;14.53;13.33;;;17.20;99.90;;;;;;5061968;28;20459;-77
2021/06/10 03:56:12;;;;;;;16.60;15.20;;;17.10;99.90;;;;;;5057547;28;20460;-78
2021/06/10 03:58:38;;;;;;;16.50;15.00;;;17.10;99.90;;;;;;5055733;28;20437;-78
2021/06/10 04:01:04;;;;;;;14.90;13.63;;;17.10;99.90;;;;;;5057541;28;20187;-78
2021/06/10 04:03:30;;;;;;;16.30;14.70;;;17.10;99.90;;;;;;5059438;28;20235;-77
2021/06/10 04:05:56;;;;;;;16.10;14.60;;;17.10;99.90;;;;;;5056798;28;20409;-76
2021/06/10 04:08:22;;;;;;;14.97;13.77;;;17.10;99.90;;;;;;5057195;28;20621;-77
2021/06/10 04:10:48;;;;;;;18.47;16.83;;;17.10;99.90;;;;;;5059149;28;20830;-78
2021/06/10 04:13:13;;;;;;;15.60;14.23;;;17.10;99.90;;;;;;5058355;28;20265;-77
2021/06/10 04:15:39;;;;;;;17.80;16.30;;;17.10;99.90;;;;;;5061066;28;20209;-77
2021/06/10 04:18:04;;;;;;;17.53;15.93;;;17.20;99.90;;;;;;5071264;22;20226;-77
2021/06/10 04:20:30;;;;;;;17.37;15.80;;;17.20;99.90;;;;;;5040564;28;20186;-80
2021/06/10 04:22:56;;;;;;;18.40;16.80;;;17.20;99.90;;;;;;5041686;28;20175;-80
2021/06/10 04:25:21;;;;;;;18.10;16.37;;;17.30;99.90;;;;;;5038342;28;20269;-79
2021/06/10 04:27:47;;;;;;;19.63;17.60;;;17.30;99.90;;;;;;5041778;28;20186;-78
2021/06/10 04:30:13;;;;;;;16.93;15.23;;;17.30;99.90;;;;;;5035249;28;20183;-79
2021/06/10 04:32:41;;;;;;;15.63;14.23;;;17.40;99.90;;;;;;5024073;28;20273;-79
2021/06/10 04:35:08;;;;;;;18.00;16.40;;;17.50;99.90;;;;;;5020859;28;20552;-79
2021/06/10 04:37:34;;;;;;;17.50;15.90;;;17.60;99.90;;;;;;5025435;28;20436;-79
2021/06/10 04:39:59;;;;;;;16.73;15.13;;;17.60;99.90;;;;;;5020676;28;20454;-78
2021/06/10 04:42:25;;;;;;;18.27;16.33;;;17.70;99.90;;;;;;5015912;28;20891;-78
2021/06/10 04:44:51;;;;;;;21.10;19.20;;;17.70;99.90;;;;;;5011156;28;20183;-78
2021/06/10 04:47:17;;;;;;;19.80;17.90;;;17.80;99.90;;;;;;5025095;28;20183;-79
2021/06/10 04:49:44;;;;;;;19.33;17.53;;;17.80;99.90;;;;;;5025354;28;20204;-78
2021/06/10 04:52:10;;;;;;;19.20;17.50;;;17.90;99.90;;;;;;5022290;28;20497;-79
2021/06/10 04:54:36;;;;;;;19.90;17.80;;;18.00;99.90;;;;;;5018647;28;20517;-80
2021/06/10 04:57:03;;;;;;;18.30;16.60;;;18.20;99.90;;;;;;5016258;28;21062;-80
2021/06/10 04:59:29;;;;;;;21.57;19.60;;;18.30;99.90;;;;;;5042059;28;20203;-80
2021/06/10 05:01:56;;;;;;;19.63;17.87;;;18.40;99.90;;;;;;5053018;28;20843;-82
2021/06/10 05:04:22;;;;;;;20.30;18.60;;;18.50;99.90;;;;;;5034186;28;20175;-79
2021/06/10 05:06:50;;;;;;;20.80;18.90;;;18.40;99.90;;;;;;5015389;28;20430;-78
2021/06/10 05:09:15;;;;;;;21.00;18.50;;;18.50;99.90;;;;;;5019320;28;20830;-79
2021/06/10 05:11:41;;;;;;;20.07;18.27;;;18.70;99.90;;;;;;5015775;28;20426;-79
2021/06/10 05:14:07;;;;;;;19.80;17.77;;;18.80;99.90;;;;;;5024226;28;20261;-78
2021/06/10 05:16:32;;;;;;;19.80;18.03;;;18.90;99.90;;;;;;5020148;28;20203;-79
2021/06/10 05:18:58;;;;;;;20.57;18.50;;;19.00;99.90;;;;;;5023247;28;20763;-80
2021/06/10 05:21:23;;;;;;;19.90;18.10;;;19.00;99.90;;;;;;5035220;28;20190;-79
2021/06/10 05:23:49;;;;;;;20.80;18.80;;;18.90;99.90;;;;;;5032518;28;20186;-82
2021/06/10 05:26:15;;;;;;;21.77;19.77;;;18.90;99.90;;;;;;5046989;28;20183;-82
2021/06/10 05:28:40;;;;;;;19.80;18.00;;;18.90;99.90;;;;;;5030520;28;20217;-82
2021/06/10 05:31:08;;;;;;;21.73;19.63;;;18.90;99.90;;;;;;5033836;28;20213;-82
2021/06/10 05:33:34;;;;;;;20.70;18.60;;;19.10;99.90;;;;;;5032004;28;20282;-82
2021/06/10 05:36:00;;;;;;;21.00;19.00;;;19.10;99.90;;;;;;5028846;28;20465;-82
2021/06/10 05:38:25;;;;;;;21.03;18.93;;;19.10;99.90;;;;;;5040334;28;20813;-82
2021/06/10 05:40:51;;;;;;;19.67;17.77;;;19.10;99.90;;;;;;5035352;28;20183;-82
2021/06/10 05:43:16;;;;;;;19.40;17.63;;;19.20;99.90;;;;;;5027949;28;20187;-83
2021/06/10 05:45:42;;;;;;;20.40;18.60;;;19.20;99.90;;;;;;5025061;28;20295;-82
2021/06/10 05:48:08;;;;;;;20.00;18.00;;;19.20;99.90;;;;;;5041722;28;20275;-82
2021/06/10 05:50:33;;;;;;;21.87;19.97;;;19.20;99.90;;;;;;5034346;28;20211;-82
2021/06/10 05:52:59;;;;;;;20.00;18.10;;;19.30;99.90;;;;;;5029487;28;20214;-82
2021/06/10 05:55:24;;;;;;;21.03;19.23;;;19.30;99.90;;;;;;5032561;28;20203;-82
2021/06/10 05:57:50;;;;;;;21.17;19.13;;;19.40;99.90;;;;;;5019087;28;20191;-83
2021/06/10 06:00:17;;;;;;;23.30;21.20;;;19.50;99.90;;;;;;5031045;28;20188;-83
2021/06/10 06:02:43;;;;;;;22.20;20.13;;;19.60;99.90;;;;;;5033592;28;20193;-83
2021/06/10 06:05:10;;;;;;;21.10;19.10;;;19.70;99.90;;;;;;5037274;28;20430;-82
2021/06/10 06:07:36;;;;;;;23.10;19.60;;;19.70;99.90;;;;;;5036614;28;20179;-81
2021/06/10 06:10:04;;;;;;;19.40;17.60;;;19.80;99.90;;;;;;5041767;28;20457;-83
2021/06/10 06:12:31;;;;;;;19.90;18.13;;;19.90;99.90;;;;;;5061244;28;20440;-83
2021/06/10 06:14:57;;;;;;;21.57;19.27;;;19.90;99.90;;;;;;5043403;28;20406;-82
2021/06/10 06:17:23;;;;;;;19.33;17.63;;;20.00;99.90;;;;;;5037681;28;20425;-83
2021/06/10 06:19:49;;;;;;;20.73;18.70;;;20.00;99.90;;;;;;5035167;28;20217;-83
2021/06/10 06:22:14;;;;;;;19.80;18.10;;;20.20;99.90;;;;;;5045480;28;20192;-82
2021/06/10 06:24:40;;;;;;;19.10;17.37;;;20.20;99.90;;;;;;5051085;28;20169;-82
2021/06/10 06:27:07;;;;;;;19.53;17.87;;;20.20;99.90;;;;;;5051954;28;20171;-82
2021/06/10 06:29:33;;;;;;;21.17;19.13;;;20.40;99.90;;;;;;5044830;28;20207;-82
2021/06/10 06:31:59;;;;;;;20.70;18.70;;;20.40;99.90;;;;;;5058449;28;20438;-81
2021/06/10 06:34:25;;;;;;;18.97;17.30;;;20.20;99.90;;;;;;5059743;28;20422;-80
2021/06/10 06:36:51;;;;;;;20.00;18.07;;;20.30;99.90;;;;;;5060165;28;20477;-81
2021/06/10 06:39:17;;;;;;;21.50;19.40;;;20.40;99.90;;;;;;5054320;28;20676;-80
2021/06/10 06:41:43;;;;;;;19.83;17.80;;;20.50;99.90;;;;;;5054009;28;20181;-82
2021/06/10 06:44:09;;;;;;;20.87;18.97;;;20.30;99.90;;;;;;5051482;28;20202;-82
2021/06/10 06:46:35;;;;;;;20.23;18.30;;;20.40;99.90;;;;;;5064641;28;20213;-83
2021/06/10 06:49:01;;;;;;;23.33;21.13;;;20.50;99.90;;;;;;5034925;28;20855;-81
2021/06/10 06:51:27;;;;;;;20.60;18.60;;;20.50;99.90;;;;;;5035051;28;20439;-81
2021/06/10 06:53:54;;;;;;;20.33;18.60;;;20.60;99.90;;;;;;5030773;28;20954;-81
2021/06/10 06:56:22;;;;;;;20.33;18.43;;;20.60;99.90;;;;;;5024578;28;20342;-81
2021/06/10 06:58:47;;;;;;;21.30;19.30;;;20.60;99.90;;;;;;5024155;28;20439;-83
2021/06/10 07:01:13;;;;;;;20.73;18.63;;;20.70;99.90;;;;;;5019092;28;20423;-81
2021/06/10 07:03:39;;;;;;;22.43;20.33;;;20.90;99.90;;;;;;5033422;28;20183;-81
2021/06/10 07:06:05;;;;;;;21.20;19.23;;;20.90;99.90;;;;;;5027996;28;20429;-80
2021/06/10 07:08:31;;;;;;;20.60;18.70;;;20.90;99.90;;;;;;5025737;28;20252;-81
2021/06/10 07:11:00;;;;;;;20.67;18.77;;;21.10;99.90;;;;;;5028763;28;20270;-81
2021/06/10 07:13:26;;;;;;;20.53;18.63;;;21.20;99.90;;;;;;5029780;28;20506;-81
2021/06/10 07:15:52;;;;;;;19.70;18.03;;;21.30;99.90;;;;;;5022613;28;20457;-81
2021/06/10 07:18:18;;;;;;;20.70;18.90;;;21.40;99.90;;;;;;5020003;28;20993;-81
2021/06/10 07:20:44;;;;;;;18.47;16.97;;;21.50;99.90;;;;;;5039826;28;20497;-81
2021/06/10 07:23:10;;;;;;;20.03;18.33;;;21.60;99.90;;;;;;5025685;28;20176;-83
2021/06/10 07:25:36;;;;;;;18.27;16.73;;;21.60;99.90;;;;;;5039325;28;20399;-84
2021/06/10 07:28:03;;;;;;;18.33;16.80;;;21.80;99.90;;;;;;5037954;28;20613;-81
2021/06/10 07:30:28;;;;;;;18.83;17.27;;;22.00;99.90;;;;;;5027702;28;20423;-82
2021/06/10 07:32:54;;;;;;;18.57;16.77;;;22.20;99.90;;;;;;5018605;28;20418;-81
2021/06/10 07:35:21;;;;;;;19.60;17.90;;;22.10;99.90;;;;;;5036132;28;20217;-82
2021/06/10 07:37:48;;;;;;;18.70;16.90;;;21.90;99.90;;;;;;5025471;28;20579;-81
2021/06/10 07:40:15;;;;;;;18.73;17.03;;;22.00;99.90;;;;;;5034892;28;20440;-80
2021/06/10 07:42:40;;;;;;;18.53;16.93;;;22.20;99.90;;;;;;5038158;28;20806;-81
2021/06/10 07:45:07;;;;;;;18.33;16.83;;;22.10;99.90;;;;;;5028526;28;20453;-81
2021/06/10 07:47:32;;;;;;;18.07;15.73;;;22.20;99.90;;;;;;5039579;28;20179;-81
2021/06/10 07:49:58;;;;;;;17.43;15.83;;;22.10;99.90;;;;;;5029629;28;20502;-81
2021/06/10 07:52:23;;;;;;;16.63;15.20;;;22.30;99.90;;;;;;5042589;28;20191;-81
2021/06/10 07:54:49;;;;;;;17.73;14.87;;;22.40;99.90;;;;;;5030119;28;20600;-82
2021/06/10 07:57:15;;;;;;;16.50;15.20;;;22.50;99.90;;;;;;5038395;28;20179;-82
2021/06/10 07:59:40;;;;;;;19.40;17.73;;;22.60;99.90;;;;;;5022251;28;20278;-81
2021/06/10 08:02:08;;;;;;;17.20;15.70;;;22.70;99.90;;;;;;5025437;28;20183;-81
2021/06/10 08:04:33;;;;;;;16.43;15.03;;;22.70;99.90;;;;;;5028892;28;20211;-81
2021/06/10 08:06:59;;;;;;;18.30;16.70;;;22.80;99.90;;;;;;5034087;28;20438;-81
2021/06/10 08:09:25;;;;;;;17.80;16.30;;;22.90;99.90;;;;;;5032061;28;20298;-82
2021/06/10 08:11:50;;;;;;;17.90;15.67;;;23.00;99.90;;;;;;5021318;28;20191;-81
2021/06/10 08:14:16;;;;;;;16.80;15.30;;;23.10;99.90;;;;;;5033634;28;20229;-83
2021/06/10 08:16:42;;;;;;;16.20;14.80;;;23.20;99.90;;;;;;5033392;28;20227;-79
2021/06/10 08:19:07;;;;;;;15.17;13.77;;;23.30;99.90;;;;;;5034916;28;20215;-79
2021/06/10 08:21:33;;;;;;;17.47;15.93;;;23.40;99.90;;;;;;5032984;28;20179;-81
2021/06/10 08:23:59;;;;;;;16.10;14.70;;;23.60;99.90;;;;;;5025959;28;20175;-78
2021/06/10 08:26:25;;;;;;;18.43;16.93;;;23.60;99.90;;;;;;5028812;28;20192;-82
2021/06/10 08:28:50;;;;;;;16.80;15.37;;;23.50;99.90;;;;;;5053143;28;20213;-78
2021/06/10 08:31:16;;;;;;;17.23;15.73;;;23.60;99.90;;;;;;5039648;28;20430;-75
2021/06/10 08:33:43;;;;;;;16.53;15.03;;;23.50;99.90;;;;;;5030209;28;20659;-75
2021/06/10 08:36:09;;;;;;;15.73;14.53;;;23.60;99.90;;;;;;5034708;28;20214;-76
2021/06/10 08:38:36;;;;;;;14.17;13.07;;;23.70;99.90;;;;;;5033430;28;20540;-77
2021/06/10 08:41:03;;;;;;;14.90;13.40;;;23.80;99.90;;;;;;5028665;28;20516;-80
2021/06/10 08:43:28;;;;;;;15.07;13.67;;;24.00;99.90;;;;;;5040082;28;20410;-79
2021/06/10 08:46:05;;;;;;;15.20;13.80;;;24.20;99.90;;;;;;5035864;28;20524;-78
2021/06/10 08:48:32;;;;;;;14.33;13.13;;;24.10;99.90;;;;;;5034826;28;20210;-78
2021/06/10 08:50:58;;;;;;;16.00;14.70;;;24.20;99.90;;;;;;5041070;28;20436;-79
2021/06/10 08:53:24;;;;;;;15.03;13.80;;;24.20;99.90;;;;;;5031959;28;20415;-79
2021/06/10 08:55:51;;;;;;;13.53;12.13;;;24.20;99.90;;;;;;5042070;28;20582;-79
2021/06/10 08:58:17;;;;;;;13.00;11.90;;;24.30;99.90;;;;;;5044140;28;20449;-80
2021/06/10 09:00:42;;;;;;;17.00;15.60;;;24.40;99.90;;;;;;5039151;28;20467;-79
2021/06/10 09:03:08;;;;;;;15.37;13.97;;;24.50;99.90;;;;;;5045679;28;20199;-78
2021/06/10 09:05:34;;;;;;;14.53;13.37;;;24.50;99.90;;;;;;5039313;28;20600;-80
2021/06/10 09:08:02;;;;;;;14.27;13.17;;;24.70;99.90;;;;;;5048277;28;20276;-79
2021/06/10 09:10:30;;;;;;;14.50;13.37;;;24.70;99.90;;;;;;5025843;28;20244;-79
2021/06/10 09:13:00;;;;;;;12.97;11.97;;;24.90;99.90;;;;;;5039272;28;20435;-80
2021/06/10 09:15:30;;;;;;;13.23;12.13;;;24.90;99.90;;;;;;5027953;28;20473;-79
2021/06/10 09:18:06;;;;;;;13.47;12.37;;;25.00;99.90;;;;;;5036293;28;20413;-79
2021/06/10 09:20:42;;;;;;;14.30;13.00;;;25.20;99.90;;;;;;5024667;28;20793;-79
2021/06/10 09:23:20;;;;;;;13.63;12.57;;;25.10;99.90;;;;;;5041000;28;20424;-79
2021/06/10 09:26:02;;;;;;;14.10;13.00;;;25.10;99.90;;;;;;5044316;28;20478;-78
2021/06/10 09:28:32;;;;;;;14.63;13.40;;;25.20;99.90;;;;;;5027253;28;20585;-79
2021/06/10 09:30:59;;;;;;;14.30;13.20;;;24.90;99.90;;;;;;5036799;28;20816;-78
2021/06/10 09:33:26;;;;;;;13.03;12.03;;;24.80;99.90;;;;;;5034784;28;20425;-79
2021/06/10 09:35:56;;;;;;;13.70;12.70;;;24.80;99.90;;;;;;5037791;28;20493;-79
2021/06/10 09:38:22;;;;;;;13.07;12.10;;;24.80;99.90;;;;;;5042302;28;20465;-80
2021/06/10 09:40:53;;;;;;;13.70;12.70;;;24.80;99.90;;;;;;5032461;28;20970;-79
2021/06/10 09:43:19;;;;;;;13.00;12.00;;;25.00;99.90;;;;;;5044794;28;20185;-80
2021/06/10 09:45:51;;;;;;;14.83;13.73;;;25.10;99.90;;;;;;5035862;28;20772;-79
2021/06/10 09:48:32;;;;;;;12.80;11.90;;;25.20;99.90;;;;;;5041423;28;20450;-79
2021/06/10 09:50:58;;;;;;;13.50;12.30;;;25.20;99.90;;;;;;5042880;28;20499;-79
2021/06/10 09:53:28;;;;;;;13.33;12.33;;;25.40;99.90;;;;;;5031290;28;20494;-79
2021/06/10 09:55:56;;;;;;;14.60;13.40;;;25.50;99.90;;;;;;5021217;28;20561;-79
2021/06/10 09:58:33;;;;;;;13.50;12.50;;;25.50;99.90;;;;;;5031879;28;20439;-80
2021/06/10 10:01:04;;;;;;;15.13;13.93;;;25.40;99.90;;;;;;5033917;28;20434;-79
2021/06/10 10:03:40;;;;;;;12.47;11.47;;;25.20;99.90;;;;;;5028180;28;20421;-79
2021/06/10 10:06:12;;;;;;;11.37;10.57;;;25.20;99.90;;;;;;5033723;28;20421;-79
2021/06/10 10:08:39;;;;;;;12.27;11.17;;;25.20;99.90;;;;;;5036287;28;20457;-80
2021/06/10 10:11:07;;;;;;;10.80;10.00;;;25.30;99.90;;;;;;5031823;28;20679;-79
2021/06/10 10:13:33;;;;;;;10.60;9.80;;;25.50;99.90;;;;;;5031261;28;21111;-80
2021/06/10 10:16:00;;;;;;;11.00;10.20;;;25.70;99.90;;;;;;5032667;28;20556;-79
2021/06/10 10:18:26;;;;;;;12.13;11.33;;;26.00;99.90;;;;;;5055184;22;20226;-76
2021/06/10 10:20:52;;;;;;;11.80;10.90;;;26.10;99.90;;;;;;5063407;28;21046;-78
2021/06/10 10:23:17;;;;;;;10.80;10.00;;;26.20;99.90;;;;;;5069436;28;20181;-77
2021/06/10 10:25:43;;;;;;;11.20;10.40;;;26.20;99.90;;;;;;5069153;28;20239;-79
2021/06/10 10:28:14;;;;;;;12.00;11.10;;;26.30;99.90;;;;;;5062343;28;20181;-78
2021/06/10 10:30:44;;;;;;;12.13;11.33;;;26.30;99.90;;;;;;5042634;28;20273;-78
2021/06/10 10:33:18;;;;;;;10.63;9.83;;;26.30;99.90;;;;;;5048702;28;20835;-78
2021/06/10 10:35:48;;;;;;;11.93;10.93;;;26.50;99.90;;;;;;5045976;28;20469;-79
2021/06/10 10:38:15;;;;;;;11.67;10.77;;;26.60;99.90;;;;;;5038487;28;20433;-76
2021/06/10 10:40:56;;;;;;;9.80;9.00;;;26.60;99.90;;;;;;5043965;28;20507;-79
2021/06/10 10:43:24;;;;;;;11.40;10.23;;;26.50;99.90;;;;;;5047654;28;20461;-77
2021/06/10 10:46:12;;;;;;;10.50;9.60;;;26.50;99.90;;;;;;5045323;28;20523;-78
2021/06/10 10:48:42;;;;;;;10.90;10.00;;;26.40;99.90;;;;;;5049384;28;20449;-79
2021/06/10 10:51:35;;;;;;;12.03;11.03;;;26.40;99.90;;;;;;5043715;28;20500;-78
2021/06/10 10:54:05;;;;;;;10.10;9.30;;;26.50;99.90;;;;;;5047963;28;20428;-78
2021/06/10 10:56:36;;;;;;;12.60;11.40;;;26.50;99.90;;;;;;5046654;28;20472;-77
2021/06/10 10:59:16;;;;;;;11.40;10.50;;;26.50;99.90;;;;;;5042995;28;20440;-76
2021/06/10 11:02:02;;;;;;;11.87;10.87;;;26.30;99.90;;;;;;5045635;28;20483;-76
2021/06/10 11:04:46;;;;;;;12.30;11.43;;;26.30;99.90;;;;;;5049247;28;20425;-78
2021/06/10 11:07:40;;;;;;;12.60;11.50;;;26.30;99.90;;;;;;5043759;28;20421;-79
2021/06/10 11:10:15;;;;;;;11.07;10.17;;;26.40;99.90;;;;;;5062168;28;20452;-81
2021/06/10 11:12:44;;;;;;;11.80;10.90;;;26.40;99.90;;;;;;5045400;28;20441;-80
2021/06/10 11:15:15;;;;;;;12.47;11.47;;;26.60;99.90;;;;;;5039778;28;20775;-78
2021/06/10 11:17:45;;;;;;;12.37;11.37;;;26.80;99.90;;;;;;5048539;28;20438;-78
2021/06/10 11:20:15;;;;;;;13.13;12.03;;;26.80;99.90;;;;;;5059514;28;20463;-77
2021/06/10 11:22:49;;;;;;;11.77;10.57;;;26.60;99.90;;;;;;5059445;28;20450;-77
2021/06/10 11:25:27;;;;;;;11.80;10.87;;;26.50;99.90;;;;;;5055027;28;20437;-76
2021/06/10 11:28:05;;;;;;;12.23;11.33;;;26.50;99.90;;;;;;5050470;28;20409;-76
2021/06/10 11:30:31;;;;;;;11.73;10.80;;;26.50;99.90;;;;;;5033726;28;20907;-78
2021/06/10 11:33:21;;;;;;;12.23;11.23;;;26.70;99.90;;;;;;5042537;28;20426;-79
2021/06/10 11:36:01;;;;;;;11.77;10.80;;;27.20;99.90;;;;;;5043419;28;20295;-78
2021/06/10 11:38:31;;;;;;;12.70;11.70;;;27.50;99.90;;;;;;5050003;28;20758;-76
2021/06/10 11:41:18;;;;;;;12.73;11.80;;;27.50;99.90;;;;;;5047548;28;20526;-76
2021/06/10 11:43:48;;;;;;;11.23;10.40;;;27.50;99.90;;;;;;5042242;28;20809;-78
2021/06/10 11:46:15;;;;;;;9.80;8.97;;;27.80;99.90;;;;;;5045033;28;20429;-77
2021/06/10 11:48:53;;;;;;;12.13;11.33;;;28.30;99.90;;;;;;5041393;28;20452;-78
2021/06/10 11:51:31;;;;;;;12.30;11.40;;;28.80;99.90;;;;;;5042486;28;20420;-78
2021/06/10 11:54:11;;;;;;;11.20;10.50;;;28.80;99.90;;;;;;5043384;28;20823;-79
2021/06/10 11:56:37;;;;;;;13.93;12.30;;;28.50;99.90;;;;;;5039971;28;20479;-79
2021/06/10 11:59:19;;;;;;;12.27;11.27;;;28.20;99.90;;;;;;5042643;28;20469;-79
2021/06/10 12:02:06;;;;;;;10.63;9.93;;;28.00;99.90;;;;;;5045192;28;20442;-80
2021/06/10 12:04:34;;;;;;;10.43;9.70;;;28.20;99.90;;;;;;5039865;28;20483;-77
2021/06/10 12:07:13;;;;;;;10.17;9.50;;;28.80;99.90;;;;;;5041083;28;20456;-77
2021/06/10 12:09:54;;;;;;;11.37;10.50;;;29.90;99.90;;;;;;5043741;28;20526;-78
2021/06/10 12:12:40;;;;;;;10.70;9.90;;;31.00;99.90;;;;;;5040703;28;20518;-80
2021/06/10 12:15:08;;;;;;;10.60;9.80;;;31.50;99.90;;;;;;5046328;28;20416;-79
2021/06/10 12:17:50;;;;;;;13.07;12.07;;;31.50;99.90;;;;;;5042755;28;20444;-80
2021/06/10 12:20:21;;;;;;;11.53;10.57;;;31.30;99.90;;;;;;5047355;28;20529;-81
2021/06/10 12:22:47;;;;;;;11.20;10.33;;;30.90;99.90;;;;;;5045907;28;20417;-78
2021/06/10 12:25:18;;;;;;;12.80;11.83;;;30.40;99.90;;;;;;5053987;28;20439;-78
2021/06/10 12:27:44;;;;;;;12.13;11.33;;;30.00;99.90;;;;;;5049946;28;20562;-79
2021/06/10 12:30:38;;;;;;;11.90;11.10;;;29.50;99.90;;;;;;5044623;28;20541;-77
2021/06/10 12:33:11;;;;;;;11.70;10.90;;;29.30;99.90;;;;;;5037895;28;20563;-77
2021/06/10 12:35:37;;;;;;;12.30;11.40;;;29.70;99.90;;;;;;5048826;28;20464;-80